Weather observations for the past three days for
Jesup-Wayne County Airport
| Date | Time (edt) | Wind (mph) | Vis. (mi.) | Weather | Sky Cond. | Temperature (ºF) | Relative Humidity | Wind Chill (°F) | Heat Index (°F) | Pressure | Precipitation (in) | ||||||
|---|---|---|---|---|---|---|---|---|---|---|---|---|---|---|---|---|---|
| Air | Dwpt | 6 hour | altimeter (in) | sea level (mb) | 1 hr | 3 hr | 6 hr | ||||||||||
| Max. | Min. | ||||||||||||||||
| 04 | 17:50 | SE 8 | 10.00 | Fair | CLR | 78.8 | 46.4 | 32% | 79 | 30.02 | 0.0 | ||||||
| 04 | 17:30 | SE 7 | 10.00 | Fair | CLR | 78.8 | 46.4 | 32% | 79 | 30.02 | 0.0 | ||||||
| 04 | 17:10 | SE 7 | 10.00 | Fair | CLR | 80.6 | 46.4 | 30% | 80 | 30.02 | 0.0 | ||||||
| 04 | 16:50 | S 9 | 10.00 | Fair | CLR | 80.6 | 46.4 | 30% | 80 | 30.02 | 0.0 | ||||||
| 04 | 16:30 | S 6 | 10.00 | Fair | CLR | 80.6 | 46.4 | 30% | 80 | 30.02 | 0.0 | ||||||
| 04 | 16:10 | SE 9 | 10.00 | Fair | CLR | 80.6 | 46.4 | 30% | 80 | 30.02 | 0.0 | ||||||
| 04 | 15:50 | SW 5 | 10.00 | Fair | CLR | 80.6 | 41 | 24% | 79 | 30.04 | 0.0 | ||||||
| 04 | 15:30 | SE 6 | 10.00 | Fair | CLR | 80.6 | 39.2 | 23% | 79 | 30.04 | 0.0 | ||||||
| 04 | 15:10 | S 6 | 10.00 | Fair | CLR | 80.6 | 41 | 24% | 79 | 30.05 | 0.0 | ||||||
| 04 | 14:50 | Calm | 10.00 | Fair | CLR | 80.6 | 42.8 | 26% | 79 | 30.06 | 0.0 | ||||||
| 04 | 14:30 | SE 7 | 10.00 | Fair | CLR | 80.6 | 42.8 | 26% | 79 | 30.06 | 0.0 | ||||||
| 04 | 13:50 | SW 5 | 10.00 | Fair | CLR | 78.8 | 42.8 | 28% | 78 | 30.07 | 0.0 | ||||||
| 04 | 13:30 | Calm | 7.00 | Fair | CLR | 78.8 | 44.6 | 30% | 79 | 30.08 | 0.0 | ||||||
| 04 | 13:10 | Calm | 10.00 | Fair | CLR | 78.8 | 44.6 | 30% | 79 | 30.08 | 0.0 | ||||||
| 04 | 12:30 | Calm | 10.00 | Fair | CLR | 77 | 44.6 | 32% | 78 | 30.09 | 0.0 | ||||||
| 04 | 12:10 | Calm | 10.00 | Fair | CLR | 77 | 44.6 | 32% | 78 | 30.1 | 0.0 | ||||||
| 04 | 11:50 | Calm | 10.00 | Fair | CLR | 75.2 | 44.6 | 34% | 77 | 30.1 | 0.0 | ||||||
| 04 | 11:30 | NW 5 | 10.00 | Fair | CLR | 75.2 | 44.6 | 34% | 77 | 30.11 | 0.0 | ||||||
| 04 | 11:10 | Calm | 10.00 | Fair | CLR | 77 | 48.2 | 36% | 78 | 30.12 | 0.0 | ||||||
| 04 | 10:50 | Calm | 10.00 | Fair | CLR | 77 | 48.2 | 36% | 78 | 30.12 | 0.0 | ||||||
| 04 | 10:30 | Calm | 10.00 | Fair | CLR | 73.4 | 51.8 | 47% | 30.12 | 0.0 | |||||||
| 04 | 10:10 | Calm | 10.00 | Fair | CLR | 71.6 | 55.4 | 57% | 30.12 | 0.0 | |||||||
| 04 | 09:50 | Calm | 10.00 | Fair | CLR | 69.8 | 55.4 | 60% | 30.12 | 0.0 | |||||||
| 04 | 09:30 | Calm | 10.00 | Fair | CLR | 68 | 57.2 | 69% | 30.12 | 0.0 | |||||||
| 04 | 09:10 | Calm | 10.00 | Fair | CLR | 64.4 | 57.2 | 78% | 30.12 | 0.0 | |||||||
| 04 | 08:50 | Calm | 10.00 | Fair | CLR | 60.8 | 55.4 | 83% | 30.12 | 0.0 | |||||||
| 04 | 08:30 | Calm | 10.00 | Fair | CLR | 55.4 | 53.6 | 94% | 30.11 | 0.0 | |||||||
| 04 | 08:10 | Calm | 10.00 | Fair | CLR | 51.8 | 50 | 94% | 30.11 | 0.0 | |||||||
| 04 | 07:50 | Calm | 10.00 | Fair | CLR | 48.2 | 46.4 | 94% | 30.11 | 0.0 | |||||||
| 04 | 07:30 | Calm | 10.00 | Fair | CLR | 44.6 | 44.6 | 100% | 30.11 | 0.0 | |||||||
| 04 | 07:10 | Calm | 10.00 | Fair | CLR | 42.8 | 42.8 | 100% | 30.1 | 0.0 | |||||||
| 04 | 06:50 | Calm | 10.00 | Fair | CLR | 42.8 | 41 | 93% | 30.1 | 0.0 | |||||||
| 04 | 06:30 | Calm | 10.00 | Fair | CLR | 42.8 | 41 | 93% | 30.1 | 0.0 | |||||||
| 04 | 06:10 | Calm | 10.00 | Fair | CLR | 42.8 | 42.8 | 100% | 30.09 | 0.0 | |||||||
| 04 | 05:50 | Calm | 10.00 | Fair | CLR | 42.8 | 42.8 | 100% | 30.09 | 0.0 | |||||||
| 04 | 05:30 | Calm | 10.00 | Fair | CLR | 42.8 | 42.8 | 100% | 30.09 | 0.0 | |||||||
| 04 | 05:10 | Calm | 10.00 | Fair | CLR | 44.6 | 42.8 | 93% | 30.09 | 0.0 | |||||||
| 04 | 04:50 | Calm | 10.00 | Fair | CLR | 42.8 | 42.8 | 100% | 30.09 | 0.0 | |||||||
| 04 | 04:30 | Calm | 10.00 | Fair | CLR | 42.8 | 42.8 | 100% | 30.09 | 0.0 | |||||||
| 04 | 04:10 | Calm | 10.00 | Fair | CLR | 44.6 | 44.6 | 100% | 30.1 | 0.0 | |||||||
| 04 | 03:50 | Calm | 10.00 | Fair | CLR | 46.4 | 44.6 | 93% | 30.1 | 0.0 | |||||||
| 04 | 03:30 | Calm | 10.00 | Fair | CLR | 46.4 | 46.4 | 100% | 30.11 | 0.0 | |||||||
| 04 | 03:10 | Calm | 10.00 | Fair | CLR | 46.4 | 44.6 | 93% | 30.11 | 0.0 | |||||||
| 04 | 02:50 | Calm | 10.00 | Fair | CLR | 46.4 | 44.6 | 93% | 30.11 | 0.0 | |||||||
| 04 | 02:30 | Calm | 10.00 | Fair | CLR | 46.4 | 44.6 | 93% | 30.11 | 0.0 | |||||||
| 04 | 02:10 | Calm | 10.00 | Fair | CLR | 46.4 | 46.4 | 100% | 30.12 | 0.0 | |||||||
| 04 | 01:50 | Calm | 10.00 | Fair | CLR | 46.4 | 46.4 | 100% | 30.12 | 0.0 | |||||||
| 04 | 01:30 | Calm | 10.00 | Fair | CLR | 50 | 48.2 | 94% | 30.12 | 0.0 | |||||||
| 04 | 01:10 | Calm | 10.00 | Fair | CLR | 50 | 48.2 | 94% | 30.12 | 0.0 | |||||||
| 04 | 00:30 | Calm | 10.00 | Fair | CLR | 50 | 48.2 | 94% | 30.12 | 0.0 | |||||||
| 04 | 00:10 | Calm | 10.00 | Fair | CLR | 50 | 48.2 | 94% | 30.12 | 0.0 | |||||||
| 03 | 23:50 | Calm | 10.00 | Fair | CLR | 51.8 | 50 | 94% | 30.12 | 0.0 | |||||||
| 03 | 23:30 | Calm | 10.00 | Fair | CLR | 53.6 | 51.8 | 94% | 30.12 | 0.0 | |||||||
| 03 | 23:10 | Calm | 10.00 | Fair | CLR | 53.6 | 50 | 88% | 30.12 | 0.0 | |||||||
| 03 | 22:50 | Calm | 10.00 | Fair | CLR | 55.4 | 51.8 | 88% | 30.12 | 0.0 | |||||||
| 03 | 22:30 | Calm | 10.00 | Fair | CLR | 55.4 | 51.8 | 88% | 30.12 | 0.0 | |||||||
| 03 | 22:10 | Calm | 10.00 | Fair | CLR | 59 | 51.8 | 77% | 30.11 | 0.0 | |||||||
| 03 | 21:50 | Calm | 10.00 | Fair | CLR | 60.8 | 51.8 | 72% | 30.11 | 0.0 | |||||||
| 03 | 21:30 | Calm | 10.00 | Fair | CLR | 60.8 | 51.8 | 72% | 30.1 | 0.0 | |||||||
| 03 | 21:10 | Calm | 10.00 | Fair | CLR | 62.6 | 51.8 | 68% | 30.1 | 0.0 | |||||||
| 03 | 20:50 | Calm | 10.00 | Fair | CLR | 62.6 | 51.8 | 68% | 30.09 | 0.0 | |||||||
| 03 | 20:30 | Calm | 10.00 | Fair | CLR | 64.4 | 51.8 | 64% | 30.08 | 0.0 | |||||||
| 03 | 20:10 | Calm | 10.00 | Fair | CLR | 66.2 | 51.8 | 60% | 30.08 | 0.0 | |||||||
| 03 | 19:50 | Calm | 10.00 | Fair | CLR | 68 | 51.8 | 56% | 30.08 | 0.0 | |||||||
| 03 | 19:30 | Calm | 10.00 | Fair | CLR | 69.8 | 51.8 | 53% | 30.07 | 0.0 | |||||||
| 03 | 19:10 | Calm | 10.00 | Fair | CLR | 71.6 | 51.8 | 50% | 30.07 | 0.0 | |||||||
| 03 | 18:50 | Calm | 10.00 | Fair | CLR | 73.4 | 51.8 | 47% | 30.07 | 0.0 | |||||||
| 03 | 18:30 | Calm | 10.00 | Fair | CLR | 75.2 | 42.8 | 31% | 77 | 30.06 | 0.0 | ||||||
| 03 | 18:10 | Calm | 10.00 | Fair | CLR | 75.2 | 42.8 | 31% | 77 | 30.07 | 0.0 | ||||||
| 03 | 17:50 | Calm | 10.00 | Fair | CLR | 75.2 | 41 | 29% | 77 | 30.07 | 0.0 | ||||||
| 03 | 17:35 | Calm | 10.00 | Fair | CLR | 77 | 41 | 28% | 78 | 30.07 | 0.0 | ||||||
| 03 | 17:10 | Calm | 10.00 | Fair | CLR | 77 | 41 | 28% | 78 | 30.07 | 0.0 | ||||||
| 03 | 16:50 | Calm | 10.00 | Fair | CLR | 77 | 41 | 28% | 78 | 30.08 | 0.0 | ||||||
| 03 | 16:30 | Calm | 10.00 | Fair | CLR | 77 | 41 | 28% | 78 | 30.07 | 0.0 | ||||||
| 03 | 16:10 | Calm | 10.00 | Fair | CLR | 77 | 41 | 28% | 78 | 30.08 | 0.0 | ||||||
| 03 | 15:50 | Calm | 10.00 | Fair | CLR | 75.2 | 41 | 29% | 77 | 30.08 | 0.0 | ||||||
| 03 | 15:30 | Calm | 10.00 | Fair | CLR | 77 | 41 | 28% | 78 | 30.1 | 0.0 | ||||||
| 03 | 15:10 | Calm | 10.00 | Fair | CLR | 73.4 | 41 | 31% | 30.11 | 0.0 | |||||||
| 03 | 14:50 | NW 5 | 10.00 | Fair | CLR | 73.4 | 41 | 31% | 30.12 | 0.0 | |||||||
| 03 | 14:30 | Calm | 10.00 | Fair | CLR | 73.4 | 41 | 31% | 30.13 | 0.0 | |||||||
| 03 | 14:10 | Calm | 10.00 | Fair | CLR | 73.4 | 42.8 | 33% | 30.13 | 0.0 | |||||||
| 03 | 13:50 | Calm | 10.00 | Fair | CLR | 73.4 | 42.8 | 33% | 30.14 | 0.0 | |||||||
| 03 | 13:30 | Calm | 10.00 | Fair | CLR | 71.6 | 44.6 | 38% | 30.14 | 0.0 | |||||||
| 03 | 13:10 | Calm | 10.00 | Partly Cloudy | SCT055 | 71.6 | 42.8 | 36% | 30.15 | 0.0 | |||||||
| 03 | 12:50 | Calm | 10.00 | Mostly Cloudy | BKN055 | 71.6 | 44.6 | 38% | 30.15 | 0.0 | |||||||
| 03 | 12:30 | Calm | 10.00 | Fair | CLR | 71.6 | 44.6 | 38% | 30.16 | 0.0 | |||||||
| 03 | 12:10 | Calm | 10.00 | Fair | CLR | 69.8 | 46.4 | 43% | 30.17 | 0.0 | |||||||
| 03 | 11:50 | Calm | 10.00 | Fair | CLR | 69.8 | 44.6 | 40% | 30.16 | 0.0 | |||||||
| 03 | 11:30 | Calm | 10.00 | Fair | CLR | 69.8 | 46.4 | 43% | 30.16 | 0.0 | |||||||
| 03 | 11:10 | Calm | 10.00 | Fair | CLR | 68 | 50 | 53% | 30.16 | 0.0 | |||||||
| 03 | 10:50 | Calm | 10.00 | Fair | CLR | 64.4 | 51.8 | 64% | 30.16 | 0.0 | |||||||
| 03 | 10:30 | Calm | 10.00 | Fair | CLR | 60.8 | 51.8 | 72% | 30.16 | 0.0 | |||||||
| 03 | 10:10 | Calm | 10.00 | Fair | CLR | 59 | 51.8 | 77% | 30.15 | 0.0 | |||||||
| 03 | 09:50 | Calm | 10.00 | Fair | CLR | 57.2 | 51.8 | 82% | 30.15 | 0.0 | |||||||
| 03 | 09:30 | Calm | 10.00 | Fair | CLR | 39.2 | 37.4 | 93% | 30.15 | 0.0 | |||||||
| 03 | 09:10 | Calm | 7.00 | Partly Cloudy | SCT003 | 23 | 23 | 100% | 30.16 | 0.0 | |||||||
| 03 | 08:50 | Calm | 5.00 | Fog/Mist | BKN003 BKN007 | 28.4 | 28.4 | 100% | 30.15 | 0.0 | |||||||
| 03 | 08:30 | Calm | 5.00 | Fog/Mist | OVC003 | 30.2 | 30.2 | 100% | 30.15 | 0.0 | |||||||
| 03 | 08:10 | Calm | 3.00 | Fog/Mist | OVC003 | 32 | 32 | 100% | 30.14 | 0.0 | |||||||
| 03 | 07:50 | Calm | 0.25 | Fog | OVC003 | 33.8 | 33.8 | 100% | 30.14 | 0.0 | |||||||
| 03 | 07:30 | Calm | 0.50 | Fog | OVC003 | 37.4 | 37.4 | 100% | 30.13 | 0.0 | |||||||
| 03 | 07:10 | Calm | 1.50 | Fog/Mist | OVC003 | 41 | 41 | 100% | 30.12 | 0.0 | |||||||
| 03 | 06:50 | Calm | 1.00 | Fog/Mist | OVC003 | 42.8 | 42.8 | 100% | 30.11 | 0.0 | |||||||
| 03 | 06:30 | Calm | 7.00 | Overcast | OVC003 | 44.6 | 44.6 | 100% | 30.11 | 0.0 | |||||||
| 03 | 06:10 | Calm | 10.00 | Overcast | OVC003 | 44.6 | 44.6 | 100% | 30.1 | 0.0 | |||||||
| 03 | 05:50 | Calm | 2.00 | Fog/Mist | OVC003 | 44.6 | 44.6 | 100% | 30.09 | 0.0 | |||||||
| 03 | 05:30 | Calm | 0.50 | Fog | OVC001 | 44.6 | 44.6 | 100% | 30.09 | 0.0 | |||||||
| 03 | 05:10 | Calm | 1.25 | Fog/Mist | BKN001 | 44.6 | 44.6 | 100% | 30.09 | 0.0 | |||||||
| 03 | 04:50 | Calm | 7.00 | Fair | CLR | 46.4 | 46.4 | 100% | 30.08 | 0.0 | |||||||
| 03 | 04:30 | Calm | 10.00 | Mostly Cloudy | SCT002 BKN027 BKN034 | 46.4 | 46.4 | 100% | 30.07 | 0.0 | |||||||
| 03 | 04:10 | Calm | 0.25 | Fog | OVC002 | 46.4 | 46.4 | 100% | 30.07 | 0.0 | |||||||
| 03 | 03:50 | Calm | 0.50 | Fog | OVC002 | 46.4 | 46.4 | 100% | 30.07 | 0.0 | |||||||
| 03 | 03:30 | Calm | 1.00 | Fog/Mist | VV007 | 46.4 | 46.4 | 100% | 30.07 | 0.0 | |||||||
| 03 | 03:10 | Calm | 7.00 | Fair | CLR | 48.2 | 48.2 | 100% | 30.06 | 0.0 | |||||||
| 03 | 02:50 | Calm | 3.00 | Fog/Mist | SCT002 SCT015 | 48.2 | 48.2 | 100% | 30.06 | 0.0 | |||||||
| 03 | 02:30 | Calm | 3.00 | Fog/Mist | SCT002 SCT009 SCT015 | 50 | 50 | 100% | 30.05 | 0.0 | |||||||
| 03 | 02:10 | Calm | 7.00 | Partly Cloudy | SCT011 | 51.8 | 50 | 94% | 30.05 | 0.0 | |||||||
| 03 | 01:50 | Calm | 10.00 | Partly Cloudy | SCT012 | 51.8 | 51.8 | 100% | 30.05 | 0.0 | |||||||
| 03 | 01:30 | Calm | 10.00 | Mostly Cloudy | BKN012 | 53.6 | 53.6 | 100% | 30.05 | 0.0 | |||||||
| 03 | 01:10 | Calm | 10.00 | Overcast | OVC012 | 51.8 | 51.8 | 100% | 30.05 | 0.0 | |||||||
| 03 | 00:50 | Calm | 10.00 | Overcast | OVC014 | 51.8 | 51.8 | 100% | 30.05 | 0.0 | |||||||
| 03 | 00:30 | Calm | 10.00 | Overcast | SCT001 OVC012 | 51.8 | 51.8 | 100% | 30.04 | 0.0 | |||||||
| 03 | 00:10 | Calm | 1.00 | Fog/Mist | BKN001 OVC012 | 50 | 50 | 100% | 30.04 | 0.0 | |||||||
| 02 | 23:50 | Calm | 7.00 | Partly Cloudy | SCT001 | 51.8 | 51.8 | 100% | 30.03 | 0.0 | |||||||
| 02 | 23:34 | Calm | 1.50 | Fog/Mist | SCT001 | 53.6 | 51.8 | 94% | 30.02 | 0.0 | |||||||
| 02 | 23:14 | Calm | 2.50 | Fog/Mist | SCT001 | 53.6 | 53.6 | 100% | 30.02 | 0.0 | |||||||
| 02 | 22:54 | Calm | 1.25 | Fog/Mist | BKN001 OVC013 | 53.6 | 53.6 | 100% | 30.01 | 0.0 | |||||||
| 02 | 22:40 | Calm | 5.00 | Fog/Mist | OVC013 | 53.6 | 51.8 | 94% | 30.01 | 0.0 | |||||||
| 02 | 22:18 | Calm | 10.00 | Mostly Cloudy | BKN013 | 53.6 | 53.6 | 100% | 30 | 0.0 | |||||||
| 02 | 21:54 | Calm | 7.00 | Fair | CLR | 55.4 | 55.4 | 100% | 30 | 0.0 | |||||||
| 02 | 21:34 | Calm | 10.00 | Fair | CLR | 55.4 | 53.6 | 94% | 29.98 | 0.0 | |||||||
| 02 | 21:10 | Calm | 10.00 | Fair | CLR | 57.2 | 55.4 | 94% | 29.98 | 0.0 | |||||||
| 02 | 20:50 | Calm | 10.00 | Fair | CLR | 57.2 | 55.4 | 94% | 29.96 | 0.0 | |||||||
| 02 | 20:30 | Calm | 10.00 | Fair | CLR | 59 | 55.4 | 88% | 29.95 | 0.0 | |||||||
| 02 | 20:10 | Calm | 10.00 | Partly Cloudy | SCT060 | 59 | 57.2 | 94% | 29.94 | 0.0 | |||||||
| 02 | 19:50 | Calm | 10.00 | Overcast | SCT009 OVC050 | 60.8 | 57.2 | 88% | 29.93 | 0.0 | |||||||
| 02 | 19:30 | Calm | 10.00 | Overcast | SCT011 OVC050 | 60.8 | 57.2 | 88% | 29.92 | 0.0 | |||||||
| 02 | 19:10 | Calm | 10.00 | Overcast | SCT013 OVC048 | 60.8 | 57.2 | 88% | 29.92 | 0.0 | |||||||
| 02 | 18:50 | Calm | 10.00 | Overcast | SCT010 SCT022 OVC046 | 60.8 | 57.2 | 88% | 29.92 | 0.0 | |||||||
| 02 | 18:30 | Calm | 7.00 | Overcast | BKN010 OVC020 | 59 | 59 | 100% | 29.92 | 0.0 | |||||||
| 02 | 18:10 | NE 3 | 4.00 | Rain | BKN008 OVC012 | 60.8 | 59 | 94% | 29.91 | 0.0 | |||||||
| 02 | 17:50 | Calm | 10.00 | Overcast | OVC008 | 60.8 | 59 | 94% | 29.9 | 0.0 | |||||||
| 02 | 17:30 | N 6 | 5.00 | Fog/Mist | BKN008 OVC017 | 60.8 | 59 | 94% | 29.9 | 0.0 | |||||||
| 02 | 17:10 | N 7 | 7.00 | Overcast | SCT011 BKN017 OVC023 | 60.8 | 59 | 94% | 29.88 | 0.0 | |||||||
| 02 | 16:50 | Calm | 10.00 | Overcast | SCT013 OVC022 | 60.8 | 59 | 94% | 29.87 | 0.0 | |||||||
| 02 | 16:30 | N 6 | 10.00 | Overcast | OVC011 | 60.8 | 59 | 94% | 29.88 | 0.0 | |||||||
| 02 | 16:10 | N 5 | 10.00 | Overcast | BKN011 OVC020 | 60.8 | 59 | 94% | 29.87 | 0.0 | |||||||
| 02 | 15:50 | N 6 | 10.00 | Overcast | SCT009 BKN014 OVC020 | 60.8 | 59 | 94% | 29.87 | 0.0 | |||||||
| 02 | 15:30 | N 3 | 10.00 | Light Drizzle | BKN007 OVC014 | 59 | 59 | 100% | 29.87 | 0.0 | |||||||
| 02 | 15:10 | Calm | 10.00 | Drizzle | OVC007 | 59 | 59 | 100% | 29.88 | 0.0 | |||||||
| 02 | 14:50 | Calm | 10.00 | Rain | OVC007 | 59 | 59 | 100% | 29.87 | 0.0 | |||||||
| 02 | 14:30 | Calm | 10.00 | Light Drizzle | OVC007 | 59 | 59 | 100% | 29.88 | 0.0 | |||||||
| 02 | 14:10 | Calm | 10.00 | Rain | OVC007 | 60.8 | 59 | 94% | 29.87 | 0.0 | |||||||
| 02 | 13:50 | Calm | 10.00 | Drizzle | OVC007 | 60.8 | 59 | 94% | 29.87 | 0.0 | |||||||
| 02 | 13:35 | Calm | 10.00 | Drizzle | OVC007 | 60.8 | 59 | 94% | 29.87 | 0.0 | |||||||
| 02 | 12:50 | Calm | 10.00 | Overcast | BKN007 OVC010 | 59 | 59 | 100% | 29.85 | 0.0 | |||||||
| 02 | 12:30 | Calm | 10.00 | Overcast | OVC005 | 59 | 59 | 100% | 29.86 | 0.0 | |||||||
| 02 | 12:10 | Calm | 10.00 | Light Rain | BKN005 OVC008 | 59 | 59 | 100% | 29.87 | 0.0 | |||||||
| 02 | 11:50 | Calm | 5.00 | Rain | OVC005 | 59 | 57.2 | 94% | 29.88 | 0.0 | |||||||
| 02 | 11:30 | Calm | 7.00 | Rain | BKN003 OVC007 | 59 | 59 | 100% | 29.88 | 0.0 | |||||||
| 02 | 11:10 | Calm | 3.00 | Heavy Rain | BKN005 BKN026 OVC050 | 59 | 57.2 | 94% | 29.88 | 0.0 | |||||||
| 02 | 10:50 | Calm | 4.00 | Heavy Rain | BKN005 BKN026 OVC050 | 59 | 57.2 | 94% | 29.89 | 0.0 | |||||||
| 02 | 10:30 | Calm | 7.00 | Light Rain | OVC005 | 59 | 57.2 | 94% | 29.9 | 0.0 | |||||||
| 02 | 10:10 | Calm | 1.75 | Heavy Rain | OVC005 | 59 | 57.2 | 94% | 29.88 | 0.0 | |||||||
| 02 | 09:50 | Calm | 5.00 | Rain | BKN005 OVC036 | 59 | 57.2 | 94% | 29.89 | 0.0 | |||||||
| 02 | 09:30 | Calm | 5.00 | Heavy Rain | OVC005 | 59 | 57.2 | 94% | 29.91 | 0.0 | |||||||
| 02 | 09:10 | Calm | 5.00 | Heavy Rain | OVC005 | 59 | 57.2 | 94% | 29.9 | 0.0 | |||||||
| 02 | 08:50 | Calm | 7.00 | Rain | BKN005 BKN036 OVC050 | 59 | 57.2 | 94% | 29.9 | 0.0 | |||||||
| 02 | 08:30 | Calm | 7.00 | Rain | BKN005 BKN012 OVC035 | 59 | 57.2 | 94% | 29.89 | 0.0 | |||||||
| 02 | 08:10 | Calm | 7.00 | Rain | BKN005 BKN017 OVC050 | 59 | 59 | 100% | 29.88 | 0.0 | |||||||
| 02 | 07:50 | Calm | 2.50 | Rain | SCT005 BKN023 OVC037 | 59 | 59 | 100% | 29.87 | 0.0 | |||||||
| 02 | 07:30 | Calm | 10.00 | Rain | BKN005 OVC037 | 59 | 57.2 | 94% | 29.88 | 0.0 | |||||||
| 02 | 07:10 | Calm | 4.00 | Heavy Rain | OVC005 | 59 | 59 | 100% | 29.88 | 0.0 | |||||||
| 02 | 06:50 | Calm | 7.00 | Rain | OVC005 | 59 | 59 | 100% | 29.87 | 0.0 | |||||||
| 02 | 06:30 | Calm | 5.00 | Heavy Rain | OVC005 | 60.8 | 59 | 94% | 29.86 | 0.0 | |||||||
| 02 | 06:10 | Calm | 10.00 | Light Rain | OVC005 | 60.8 | 59 | 94% | 29.84 | 0.0 | |||||||
| 02 | 05:50 | Calm | 10.00 | Light Drizzle | OVC005 | 60.8 | 59 | 94% | 29.83 | 0.0 | |||||||
| 02 | 05:30 | Calm | 10.00 | Light Rain | OVC005 | 60.8 | 59 | 94% | 29.84 | 0.0 | |||||||
| 02 | 05:10 | Calm | 10.00 | Overcast | OVC005 | 60.8 | 59 | 94% | 29.84 | 0.0 | |||||||
| 02 | 04:50 | Calm | 10.00 | Light Drizzle | OVC005 | 60.8 | 59 | 94% | 29.83 | 0.0 | |||||||
| 02 | 04:30 | Calm | 10.00 | Overcast | BKN007 BKN014 OVC035 | 60.8 | 59 | 94% | 29.87 | 0.0 | |||||||
| 02 | 04:10 | Calm | 10.00 | Overcast | SCT007 BKN014 OVC035 | 60.8 | 59 | 94% | 29.89 | 0.0 | |||||||
| 02 | 03:50 | Calm | 10.00 | Overcast | SCT008 BKN014 OVC035 | 60.8 | 59 | 94% | 29.89 | 0.0 | |||||||
| 02 | 03:30 | Calm | 10.00 | Light Rain | BKN014 BKN034 OVC047 | 60.8 | 59 | 94% | 29.89 | 0.0 | |||||||
| 02 | 03:10 | Calm | 10.00 | Light Rain | SCT014 BKN035 OVC060 | 60.8 | 59 | 94% | 29.9 | 0.0 | |||||||
| 02 | 02:50 | Calm | 10.00 | Rain | SCT014 BKN035 OVC065 | 60.8 | 59 | 94% | 29.9 | 0.0 | |||||||
| 02 | 02:30 | Calm | 10.00 | Overcast | BKN033 OVC065 | 60.8 | 59 | 94% | 29.9 | 0.0 | |||||||
| 02 | 02:10 | Calm | 10.00 | Overcast | OVC033 | 60.8 | 59 | 94% | 29.92 | 0.0 | |||||||
| 02 | 01:50 | Calm | 10.00 | Overcast | BKN033 OVC070 | 62.6 | 59 | 88% | 29.92 | 0.0 | |||||||
| 02 | 01:30 | Calm | 10.00 | Overcast | SCT037 OVC070 | 62.6 | 59 | 88% | 29.92 | 0.0 | |||||||
| 02 | 01:10 | Calm | 10.00 | Overcast | BKN039 OVC080 | 60.8 | 59 | 94% | 29.91 | 0.0 | |||||||
| 02 | 00:50 | Calm | 10.00 | Overcast | SCT041 OVC080 | 62.6 | 59 | 88% | 29.92 | 0.0 | |||||||
| 02 | 00:30 | Calm | 10.00 | Mostly Cloudy | BKN085 BKN090 | 62.6 | 59 | 88% | 29.91 | 0.0 | |||||||
| 02 | 00:10 | Calm | 10.00 | Mostly Cloudy | SCT085 BKN110 | 62.6 | 59 | 88% | 29.9 | 0.0 | |||||||
| 01 | 23:50 | Calm | 10.00 | Partly Cloudy | SCT110 | 62.6 | 59 | 88% | 29.9 | 0.0 | |||||||
| 01 | 23:30 | Calm | 10.00 | Fair | CLR | 62.6 | 59 | 88% | 29.91 | 0.0 | |||||||
| 01 | 23:10 | Calm | 10.00 | Partly Cloudy | SCT100 SCT120 | 62.6 | 59 | 88% | 29.92 | 0.0 | |||||||
| 01 | 22:50 | Calm | 10.00 | Mostly Cloudy | BKN110 | 60.8 | 59 | 94% | 29.92 | 0.0 | |||||||
| 01 | 22:30 | Calm | 10.00 | Light Rain | BKN120 | 62.6 | 60.8 | 94% | 29.93 | 0.0 | |||||||
| 01 | 22:10 | Calm | 10.00 | Light Drizzle | SCT100 SCT120 | 62.6 | 60.8 | 94% | 29.91 | 0.0 | |||||||
| 01 | 21:50 | Calm | 10.00 | Light Drizzle | SCT090 BKN120 | 62.6 | 60.8 | 94% | 29.91 | 0.0 | |||||||
| 01 | 21:30 | Calm | 10.00 | Light Drizzle | OVC110 | 62.6 | 60.8 | 94% | 29.9 | 0.0 | |||||||
| 01 | 21:10 | Calm | 10.00 | Light Rain | OVC110 | 62.6 | 60.8 | 94% | 29.91 | 0.0 | |||||||
| 01 | 20:50 | Calm | 10.00 | Light Rain | OVC110 | 64.4 | 60.8 | 88% | 29.92 | 0.0 | |||||||
| 01 | 20:30 | Calm | 10.00 | Light Drizzle | OVC110 | 64.4 | 60.8 | 88% | 29.93 | 0.0 | |||||||
| 01 | 20:10 | Calm | 10.00 | Light Rain | OVC110 | 64.4 | 60.8 | 88% | 29.92 | 0.0 | |||||||
| 01 | 19:50 | Calm | 10.00 | Mostly Cloudy | BKN110 | 64.4 | 60.8 | 88% | 29.91 | 0.0 | |||||||
| 01 | 19:30 | Calm | 10.00 | Partly Cloudy | SCT110 | 66.2 | 62.6 | 88% | 29.9 | 0.0 | |||||||
| 01 | 19:10 | Calm | 10.00 | Fair | CLR | 66.2 | 62.6 | 88% | 29.89 | 0.0 | |||||||
| 01 | 18:50 | Calm | 10.00 | Partly Cloudy | SCT055 | 66.2 | 62.6 | 88% | 29.88 | 0.0 | |||||||
| 01 | 18:30 | Calm | 10.00 | Mostly Cloudy | SCT048 BKN055 | 66.2 | 62.6 | 88% | 29.89 | 0.0 | |||||||
| Date | Time (edt) | Wind (mph) | Vis. (mi.) | Weather | Sky Cond. | Air | Dwpt | Max. | Min. | Relative Humidity | Wind Chill (°F) | Heat Index (°F) | altimeter (in) | sea level (mb) | 1 hr | 3 hr | 6 hr |
| 6 hour | |||||||||||||||||
| Temperature (ºF) | Pressure | Precipitation (in) | |||||||||||||||